createdAt,value
2023-09-23T00:02:34.493Z,1.10
2023-09-23T00:06:39.266Z,1.00
2023-09-23T00:10:42.776Z,1.13
2023-09-23T00:14:45.886Z,1.10
2023-09-23T00:18:48.676Z,0.98
2023-09-23T00:22:56.145Z,1.00
2023-09-23T00:27:00.994Z,1.10
2023-09-23T00:31:06.555Z,1.00
2023-09-23T00:35:11.763Z,0.82
2023-09-23T00:39:15.938Z,0.90
2023-09-23T00:43:19.719Z,0.90
2023-09-23T00:51:25.846Z,1.00
2023-09-23T00:55:32.015Z,1.02
2023-09-23T00:59:36.644Z,0.93
2023-09-23T01:03:40.161Z,1.10
2023-09-23T01:07:47.062Z,0.90
2023-09-23T01:11:52.461Z,1.20
2023-09-23T01:15:55.243Z,1.52
2023-09-23T01:19:59.038Z,1.20
2023-09-23T01:24:03.425Z,1.30
2023-09-23T01:28:09.761Z,1.00
2023-09-23T01:32:20.911Z,1.42
2023-09-23T01:36:23.731Z,1.10
2023-09-23T01:40:30.402Z,0.80
2023-09-23T01:44:33.190Z,1.10
2023-09-23T01:48:35.994Z,1.08
2023-09-23T01:52:39.036Z,0.93
2023-09-23T01:56:43.350Z,1.13
2023-09-23T02:00:46.420Z,1.10
2023-09-23T02:04:49.696Z,1.13
2023-09-23T02:08:52.566Z,1.00
2023-09-23T02:12:57.099Z,1.17
2023-09-23T02:17:00.092Z,1.10
2023-09-23T02:21:02.849Z,2.75
2023-09-23T02:25:06.505Z,0.80
2023-09-23T02:29:10.943Z,1.10
2023-09-23T02:33:13.751Z,0.90
2023-09-23T02:37:16.767Z,2.30
2023-09-23T02:41:19.834Z,1.70
2023-09-23T02:45:24.983Z,1.48
2023-09-23T02:49:27.947Z,2.17
2023-09-23T02:53:32.117Z,1.10
2023-09-23T02:57:36.692Z,1.33
2023-09-23T03:01:46.409Z,1.00
2023-09-23T03:05:56.803Z,1.30
2023-09-23T03:10:02.103Z,1.25
2023-09-23T03:14:07.210Z,1.10
2023-09-23T03:18:11.348Z,1.10
2023-09-23T03:22:14.389Z,0.98
2023-09-23T03:26:20.843Z,1.30
2023-09-23T03:30:24.882Z,0.95
2023-09-23T03:38:34.565Z,1.00
2023-09-23T03:42:37.396Z,1.00
2023-09-23T03:46:41.138Z,1.17
2023-09-23T03:50:45.303Z,1.63
2023-09-23T03:54:50.195Z,1.20
2023-09-23T03:58:54.177Z,1.17
2023-09-23T04:07:02.098Z,1.30
2023-09-23T04:11:05.548Z,1.50
2023-09-23T04:15:10.379Z,1.40
2023-09-23T04:19:13.134Z,1.10
2023-09-23T04:23:17.362Z,1.33
2023-09-23T04:27:20.893Z,1.95
2023-09-23T04:31:26.093Z,1.23
2023-09-23T04:35:30.698Z,1.50
2023-09-23T04:39:35.489Z,1.63
2023-09-23T04:43:38.192Z,1.40
2023-09-23T04:47:42.353Z,3.03
2023-09-23T04:51:48.140Z,1.40
2023-09-23T04:55:52.350Z,1.58
2023-09-23T04:59:59.040Z,2.65
2023-09-23T05:04:05.735Z,1.35
2023-09-23T05:08:11.050Z,1.63
2023-09-23T05:12:15.624Z,1.63
2023-09-23T05:16:18.374Z,1.40
2023-09-23T05:20:22.916Z,2.15
2023-09-23T05:24:27.814Z,2.50
2023-09-23T05:28:31.851Z,1.80
2023-09-23T05:36:37.543Z,2.00
2023-09-23T05:40:40.302Z,1.77
2023-09-23T05:44:45.221Z,2.00
2023-09-23T05:48:49.235Z,2.38
2023-09-23T05:56:56.518Z,1.90
2023-09-23T06:01:00.576Z,2.00
2023-09-23T06:05:03.460Z,2.00
2023-09-23T06:09:07.135Z,1.73
2023-09-23T06:13:10.668Z,2.95
2023-09-23T06:17:14.903Z,3.92
2023-09-23T06:21:17.659Z,3.50
2023-09-23T06:25:20.388Z,3.10
2023-09-23T06:29:23.081Z,3.30
2023-09-23T06:33:27.179Z,3.33
2023-09-23T06:37:30.036Z,3.05
2023-09-23T06:41:32.794Z,2.63
2023-09-23T06:45:36.773Z,2.38
2023-09-23T06:49:41.786Z,2.80
2023-09-23T06:53:46.777Z,2.40
2023-09-23T06:57:49.891Z,2.10
2023-09-23T07:01:52.706Z,2.70
2023-09-23T07:05:56.992Z,2.40
2023-09-23T07:09:59.717Z,3.10
2023-09-23T07:14:05.169Z,2.22
2023-09-23T07:18:08.638Z,2.63
2023-09-23T07:22:13.700Z,1.95
2023-09-23T07:26:20.824Z,1.80
2023-09-23T07:30:24.574Z,2.10
2023-09-23T07:38:31.899Z,2.30
2023-09-23T07:42:34.702Z,1.27
2023-09-23T07:46:38.116Z,2.17
2023-09-23T07:50:40.811Z,2.03
2023-09-23T07:54:45.003Z,2.10
2023-09-23T07:58:47.789Z,1.83
2023-09-23T08:02:50.800Z,2.70
2023-09-23T08:06:53.621Z,2.03
2023-09-23T08:10:57.735Z,2.65
2023-09-23T08:15:00.461Z,2.10
2023-09-23T08:19:03.699Z,2.08
2023-09-23T08:23:06.965Z,2.78
2023-09-23T08:27:11.189Z,2.78
2023-09-23T08:31:16.791Z,2.60
2023-09-23T08:35:21.657Z,2.60
2023-09-23T08:39:25.013Z,2.08
2023-09-23T08:43:38.045Z,1.80
2023-09-23T08:47:41.037Z,2.78
2023-09-23T08:51:44.399Z,1.40
2023-09-23T08:55:48.476Z,1.52
2023-09-23T08:59:52.538Z,1.17
2023-09-23T09:03:55.372Z,1.40
2023-09-23T09:07:59.750Z,1.00
2023-09-23T09:12:02.494Z,3.13
2023-09-23T09:16:07.987Z,1.00
2023-09-23T09:20:15.814Z,1.20
2023-09-23T09:24:18.756Z,1.80
2023-09-23T09:28:21.461Z,1.65
2023-09-23T09:32:31.360Z,1.10
2023-09-23T09:36:36.307Z,0.93
2023-09-23T09:40:39.275Z,1.10
2023-09-23T09:44:43.226Z,1.17
2023-09-23T09:48:48.664Z,1.33
2023-09-23T09:52:51.885Z,1.63
2023-09-23T09:56:57.890Z,0.90
2023-09-23T10:01:00.594Z,1.30
2023-09-23T10:05:07.247Z,0.93
2023-09-23T10:09:18.098Z,1.20
2023-09-23T10:13:23.628Z,0.98
2023-09-23T10:17:32.720Z,1.15
2023-09-23T10:21:37.111Z,0.93
2023-09-23T10:25:41.111Z,0.82
2023-09-23T10:29:48.462Z,0.90
2023-09-23T10:33:51.335Z,1.02
2023-09-23T10:37:55.389Z,1.15
2023-09-23T10:41:58.198Z,0.70
2023-09-23T10:46:03.002Z,0.82
2023-09-23T10:50:07.632Z,0.90
2023-09-23T10:54:14.977Z,1.00
2023-09-23T10:58:17.950Z,1.05
2023-09-23T11:02:21.030Z,1.10
2023-09-23T11:10:29.333Z,0.90
2023-09-23T11:14:32.695Z,0.90
2023-09-23T11:18:36.364Z,0.75
2023-09-23T11:22:40.299Z,0.90
2023-09-23T11:26:44.413Z,0.80
2023-09-23T11:30:47.322Z,0.98
2023-09-23T11:34:50.322Z,1.10
2023-09-23T11:38:53.118Z,1.05
2023-09-23T11:42:57.158Z,0.93
2023-09-23T11:46:59.837Z,0.90
2023-09-23T11:51:02.576Z,0.98
2023-09-23T11:55:06.523Z,1.20
2023-09-23T11:59:11.009Z,1.30
2023-09-23T12:03:14.432Z,0.80
2023-09-23T12:07:18.366Z,0.75
2023-09-23T12:11:22.649Z,1.05
2023-09-23T12:15:26.920Z,1.13
2023-09-23T12:19:29.908Z,1.10
2023-09-23T12:23:33.964Z,1.00
2023-09-23T12:27:36.769Z,1.00
2023-09-23T12:31:40.838Z,1.20
2023-09-23T12:35:43.765Z,0.98
2023-09-23T12:39:46.625Z,0.95
2023-09-23T12:43:49.515Z,0.90
2023-09-23T12:47:58.055Z,0.93
2023-09-23T12:52:01.138Z,0.88
2023-09-23T12:56:05.276Z,1.10
2023-09-23T13:00:09.401Z,1.00
2023-09-23T13:04:13.498Z,1.08
2023-09-23T13:08:16.358Z,1.05
2023-09-23T13:12:19.172Z,0.90
2023-09-23T13:16:22.057Z,1.10
2023-09-23T13:20:26.416Z,1.10
2023-09-23T13:24:33.216Z,1.23
2023-09-23T13:28:38.268Z,1.00
2023-09-23T13:32:41.185Z,1.08
2023-09-23T13:36:45.954Z,1.35
2023-09-23T13:40:48.908Z,1.40
2023-09-23T13:44:51.752Z,1.05
2023-09-23T13:48:54.492Z,0.90
2023-09-23T13:52:59.024Z,1.20
2023-09-23T13:57:01.712Z,1.23
2023-09-23T14:01:04.600Z,1.13
2023-09-23T14:05:09.187Z,1.10
2023-09-23T14:09:13.701Z,1.17
2023-09-23T14:13:16.518Z,1.42
2023-09-23T14:17:19.443Z,2.28
2023-09-23T14:21:22.186Z,1.50
2023-09-23T14:25:26.239Z,1.02
2023-09-23T14:29:30.296Z,1.20
2023-09-23T14:33:33.034Z,1.30
2023-09-23T14:37:35.907Z,1.02
2023-09-23T14:41:40.544Z,1.20
2023-09-23T14:45:43.288Z,1.10
2023-09-23T14:49:46.592Z,1.30
2023-09-23T14:53:49.383Z,1.35
2023-09-23T14:57:55.163Z,1.08
2023-09-23T15:01:57.915Z,1.10
2023-09-23T15:06:00.601Z,1.50
2023-09-23T15:10:03.751Z,1.13
2023-09-23T15:14:08.382Z,1.23
2023-09-23T15:18:11.183Z,0.93
2023-09-23T15:22:13.972Z,0.98
2023-09-23T15:26:17.365Z,1.25
2023-09-23T15:30:23.044Z,1.08
2023-09-23T15:34:25.835Z,1.02
2023-09-23T15:38:28.784Z,1.25
2023-09-23T15:42:32.945Z,0.93
2023-09-23T15:46:37.511Z,1.10
2023-09-23T15:50:40.756Z,1.10
2023-09-23T15:58:46.558Z,1.33
2023-09-23T16:02:50.949Z,1.23
2023-09-23T16:06:53.710Z,1.50
2023-09-23T16:10:56.939Z,1.33
2023-09-23T16:14:59.610Z,1.20
2023-09-23T16:19:03.786Z,1.35
2023-09-23T16:23:07.169Z,1.23
2023-09-23T16:31:13.238Z,1.30
2023-09-23T16:35:18.123Z,1.40
2023-09-23T16:39:20.944Z,1.50
2023-09-23T16:43:23.662Z,1.40
2023-09-23T16:47:26.547Z,1.80
2023-09-23T16:51:32.031Z,1.30
2023-09-23T16:55:34.805Z,1.35
2023-09-23T16:59:37.623Z,1.40
2023-09-23T17:03:40.777Z,1.42
2023-09-23T17:07:44.964Z,1.50
2023-09-23T17:11:47.797Z,1.42
2023-09-23T17:15:51.856Z,1.50
2023-09-23T17:19:54.620Z,1.40
2023-09-23T17:23:58.778Z,1.33
2023-09-23T17:28:01.616Z,1.38
2023-09-23T17:32:04.332Z,1.33
2023-09-23T17:36:07.523Z,1.50
2023-09-23T17:40:12.263Z,1.25
2023-09-23T17:44:14.965Z,1.80
2023-09-23T17:48:17.778Z,1.40
2023-09-23T17:52:20.554Z,1.80
2023-09-23T17:56:25.774Z,1.67
2023-09-23T18:00:30.924Z,1.60
2023-09-23T18:04:34.402Z,1.60
2023-09-23T18:08:37.467Z,1.83
2023-09-23T18:12:41.865Z,1.90
2023-09-23T18:16:44.936Z,1.67
2023-09-23T18:20:47.686Z,2.30
2023-09-23T18:24:50.532Z,1.90
2023-09-23T18:28:55.521Z,2.10
2023-09-23T18:32:58.514Z,2.08
2023-09-23T18:37:01.490Z,2.80
2023-09-23T18:41:04.178Z,2.30
2023-09-23T18:45:09.739Z,2.50
2023-09-23T18:49:12.629Z,2.72
2023-09-23T18:53:15.479Z,2.38
2023-09-23T18:57:18.227Z,2.20
2023-09-23T19:01:22.811Z,2.70
2023-09-23T19:05:25.576Z,2.70
2023-09-23T19:09:28.349Z,2.40
2023-09-23T19:13:31.477Z,3.70
2023-09-23T19:17:35.614Z,2.88
2023-09-23T19:21:38.579Z,2.65
2023-09-23T19:25:41.289Z,3.40
2023-09-23T19:29:44.577Z,3.53
2023-09-23T19:33:50.422Z,4.65
2023-09-23T19:37:53.249Z,4.35
2023-09-23T19:41:56.108Z,4.60
2023-09-23T19:45:58.798Z,4.10
2023-09-23T19:50:05.426Z,3.88
2023-09-23T19:54:08.284Z,3.50
2023-09-23T19:58:12.494Z,3.38
2023-09-23T20:02:15.261Z,3.42
2023-09-23T20:06:19.820Z,2.90
2023-09-23T20:10:22.829Z,2.95
2023-09-23T20:14:25.884Z,3.67
2023-09-23T20:18:28.744Z,3.83
2023-09-23T20:22:32.978Z,3.05
2023-09-23T20:26:35.813Z,3.20
2023-09-23T20:30:38.653Z,3.45
2023-09-23T20:34:41.368Z,2.97
2023-09-23T20:38:45.533Z,2.60
2023-09-23T20:42:48.350Z,2.80
2023-09-23T20:46:51.188Z,2.92
2023-09-23T20:50:54.720Z,4.90
2023-09-23T20:54:58.922Z,3.10
2023-09-23T20:59:03.277Z,3.20
2023-09-23T21:03:09.917Z,3.03
2023-09-23T21:07:13.216Z,2.78
2023-09-23T21:11:19.993Z,3.50
2023-09-23T21:15:22.968Z,3.03
2023-09-23T21:19:25.710Z,3.22
2023-09-23T21:23:28.520Z,3.90
2023-09-23T21:27:32.866Z,3.97
2023-09-23T21:31:35.695Z,4.00
2023-09-23T21:35:40.683Z,4.15
2023-09-23T21:39:43.619Z,3.40
2023-09-23T21:43:47.861Z,3.05
2023-09-23T21:47:51.062Z,3.42
2023-09-23T21:51:53.945Z,3.78
2023-09-23T21:55:58.211Z,3.40
2023-09-23T22:00:02.379Z,3.40
2023-09-23T22:04:06.203Z,3.58
2023-09-23T22:08:09.171Z,3.45
2023-09-23T22:12:12.198Z,2.88
2023-09-23T22:16:17.406Z,3.70
2023-09-23T22:20:21.672Z,3.10
2023-09-23T22:24:24.584Z,2.88
2023-09-23T22:28:27.292Z,3.22
2023-09-23T22:32:32.033Z,3.42
2023-09-23T22:36:35.009Z,3.25
2023-09-23T22:40:37.834Z,3.42
2023-09-23T22:44:40.888Z,3.17
2023-09-23T22:48:45.089Z,3.20
2023-09-23T22:52:48.803Z,2.78
2023-09-23T22:56:52.549Z,3.28
2023-09-23T23:05:00.939Z,3.05
2023-09-23T23:09:05.800Z,2.97
2023-09-23T23:13:10.856Z,3.30
2023-09-23T23:17:13.988Z,4.00
2023-09-23T23:21:18.282Z,3.78
2023-09-23T23:25:21.396Z,3.88
2023-09-23T23:29:24.129Z,3.90
2023-09-23T23:33:27.348Z,3.55
2023-09-23T23:37:36.923Z,4.13
2023-09-23T23:41:40.827Z,4.50
2023-09-23T23:45:43.924Z,7.63
2023-09-23T23:49:51.011Z,3.72
2023-09-23T23:53:55.344Z,3.78
2023-09-23T23:57:58.084Z,4.05
